Paauilo, HI (96776)

8:16 PM HST on July 27, 2016 (GMT -1000)
| | Change Station

Elev -9999 ft 0.00 °N, 0.00 °E | Updated

Clear
Clear
62 °F
Feels Like 62 °F
N
10
Wind Variable Wind from SE
Gusts mph

Today
High -- | Low -- °F
--% Chance of Precip.
Yesterday
High -- | Low -- °F
Precip. -- in
Pressure 29.94 in
Visibility 10.0 miles
Clouds Clear
Dew Point 50 °F
Humidity 67%
Rainfall --
Snow Depth Not available.
5:55 AM 7:00 PM
Waning Crescent, 35% visible
METAR PHSF 280556Z AUTO 15010G16KT 10SM CLR 16/06 A3033 RMK AO2 SLP136 T01620063 10282 20150 52011 $
Pressure 29.94 in
Visibility 10.0 miles
Clouds Clear
Dew Point 50 °F
Humidity 67%
Rainfall --
Snow Depth Not available.
5:55 AM 7:00 PM
Waning Crescent, 35% visible
METAR PHSF 280556Z AUTO 15010G16KT 10SM CLR 16/06 A3033 RMK AO2 SLP136 T01620063 10282 20150 52011 $

10-Day Weather Forecast

Almanac

Astronomy

Jul. 27, 2016 Rise Set
Actual Time
Civil Twilight
Nautical Twilight
Astronomical Twilight
Moon
Length of Visible Light
Length of Day
Tomorrow will be .
, % of the Moon is Illuminated

Today's Extremes

State Highs State Lows

Community

WunderPhotos

Upload Photos

1,928,064 photos uploaded!

WunderBlog® & News

Nearby

Air Quality

  Air Quality AQ Index Pollutant
Not available.

Snow Depth

Station Depth Elevation

Earthquake Activity

City Distance Mag. Time & Date
Minimum magnitude displayed is 2.5.

Coastal Water Temperatures

Place Temperature

Stations

Nearby Weather Stations

Station Location Temp. Windchill Dew Point Humidity Wind Precip. Elev Updated Type
                   

Watches & Warnings

There are currently no watches in effect.